sensor_id;sensor_type;location;lat;lon;timestamp;pressure;altitude;pressure_sealevel;temperature;humidity
69127;BME280;56688;50.234;19.292;2022-08-21T00:01:41;98080.42;;;19.57;87.09
69127;BME280;56688;50.234;19.292;2022-08-21T00:04:09;98074.23;;;19.52;87.11
69127;BME280;56688;50.234;19.292;2022-08-21T00:06:40;98072.32;;;19.50;87.16
69127;BME280;56688;50.234;19.292;2022-08-21T00:09:08;98073.27;;;19.53;87.36
69127;BME280;56688;50.234;19.292;2022-08-21T00:11:36;98074.07;;;19.53;87.20
69127;BME280;56688;50.234;19.292;2022-08-21T00:14:06;98056.48;;;19.44;87.15
69127;BME280;56688;50.234;19.292;2022-08-21T00:16:33;98066.69;;;19.55;87.11
69127;BME280;56688;50.234;19.292;2022-08-21T00:19:00;98068.09;;;19.59;87.06
69127;BME280;56688;50.234;19.292;2022-08-21T00:21:28;98063.77;;;19.62;86.76
69127;BME280;56688;50.234;19.292;2022-08-21T00:23:55;98064.10;;;19.62;86.57
69127;BME280;56688;50.234;19.292;2022-08-21T00:26:22;98060.40;;;19.64;86.54
69127;BME280;56688;50.234;19.292;2022-08-21T00:28:49;98055.77;;;19.68;86.31
69127;BME280;56688;50.234;19.292;2022-08-21T00:31:17;98055.27;;;19.71;86.05
69127;BME280;56688;50.234;19.292;2022-08-21T00:33:44;98049.71;;;19.69;85.91
69127;BME280;56688;50.234;19.292;2022-08-21T00:36:12;98045.67;;;19.66;85.89
69127;BME280;56688;50.234;19.292;2022-08-21T00:38:39;98041.11;;;19.65;86.00
69127;BME280;56688;50.234;19.292;2022-08-21T00:41:08;98040.40;;;19.64;85.94
69127;BME280;56688;50.234;19.292;2022-08-21T00:43:55;98039.09;;;19.58;86.10
69127;BME280;56688;50.234;19.292;2022-08-21T00:46:23;98037.05;;;19.54;86.17
69127;BME280;56688;50.234;19.292;2022-08-21T00:48:54;98036.88;;;19.50;86.35
69127;BME280;56688;50.234;19.292;2022-08-21T00:51:29;98047.35;;;19.47;86.58
69127;BME280;56688;50.234;19.292;2022-08-21T00:54:04;98042.71;;;19.48;86.74
69127;BME280;56688;50.234;19.292;2022-08-21T00:56:50;98029.46;;;19.50;86.72
69127;BME280;56688;50.234;19.292;2022-08-21T00:59:20;98024.69;;;19.49;86.70
69127;BME280;56688;50.234;19.292;2022-08-21T01:01:48;98025.39;;;19.48;86.72
69127;BME280;56688;50.234;19.292;2022-08-21T01:04:16;98020.52;;;19.46;86.72
69127;BME280;56688;50.234;19.292;2022-08-21T01:06:44;98016.30;;;19.46;87.04
69127;BME280;56688;50.234;19.292;2022-08-21T01:09:13;98016.73;;;19.49;87.22
69127;BME280;56688;50.234;19.292;2022-08-21T01:11:41;98010.98;;;19.55;87.17
69127;BME280;56688;50.234;19.292;2022-08-21T01:14:11;98018.58;;;19.62;87.02
69127;BME280;56688;50.234;19.292;2022-08-21T01:16:44;98015.69;;;19.65;87.01
69127;BME280;56688;50.234;19.292;2022-08-21T01:19:12;98016.54;;;19.69;87.10
69127;BME280;56688;50.234;19.292;2022-08-21T01:21:40;98011.77;;;19.77;87.05
69127;BME280;56688;50.234;19.292;2022-08-21T01:24:10;98007.70;;;19.84;86.99
69127;BME280;56688;50.234;19.292;2022-08-21T01:26:37;98004.94;;;19.90;86.89
69127;BME280;56688;50.234;19.292;2022-08-21T01:31:48;97994.67;;;20.05;86.55
69127;BME280;56688;50.234;19.292;2022-08-21T01:34:15;97990.09;;;20.10;86.48
69127;BME280;56688;50.234;19.292;2022-08-21T01:36:44;97992.17;;;20.15;86.30
69127;BME280;56688;50.234;19.292;2022-08-21T01:39:11;97992.09;;;20.17;86.24
69127;BME280;56688;50.234;19.292;2022-08-21T01:41:38;97993.84;;;20.19;86.19
69127;BME280;56688;50.234;19.292;2022-08-21T01:44:05;97989.28;;;20.20;86.11
69127;BME280;56688;50.234;19.292;2022-08-21T01:46:32;97986.79;;;20.22;86.14
69127;BME280;56688;50.234;19.292;2022-08-21T01:48:59;97987.46;;;20.25;86.25
69127;BME280;56688;50.234;19.292;2022-08-21T01:51:26;97979.02;;;20.29;86.07
69127;BME280;56688;50.234;19.292;2022-08-21T01:53:53;97973.63;;;20.34;85.99
69127;BME280;56688;50.234;19.292;2022-08-21T01:56:20;97963.80;;;20.37;85.89
69127;BME280;56688;50.234;19.292;2022-08-21T01:58:47;97957.42;;;20.40;85.72
69127;BME280;56688;50.234;19.292;2022-08-21T02:01:15;97949.45;;;20.46;85.56
69127;BME280;56688;50.234;19.292;2022-08-21T02:03:43;97942.46;;;20.50;85.26
69127;BME280;56688;50.234;19.292;2022-08-21T02:06:15;97940.84;;;20.51;85.14
69127;BME280;56688;50.234;19.292;2022-08-21T02:08:45;97948.88;;;20.52;85.03
69127;BME280;56688;50.234;19.292;2022-08-21T02:11:13;97949.30;;;20.51;84.84
69127;BME280;56688;50.234;19.292;2022-08-21T02:13:40;97952.78;;;20.50;84.87
69127;BME280;56688;50.234;19.292;2022-08-21T02:16:08;97954.63;;;20.50;85.05
69127;BME280;56688;50.234;19.292;2022-08-21T02:18:35;97950.66;;;20.50;85.01
69127;BME280;56688;50.234;19.292;2022-08-21T02:21:03;97947.41;;;20.49;85.24
69127;BME280;56688;50.234;19.292;2022-08-21T02:23:30;97946.42;;;20.51;85.18
69127;BME280;56688;50.234;19.292;2022-08-21T02:25:59;97939.48;;;20.50;85.25
69127;BME280;56688;50.234;19.292;2022-08-21T02:28:26;97944.27;;;20.55;85.12
69127;BME280;56688;50.234;19.292;2022-08-21T02:30:55;97941.68;;;20.57;84.98
69127;BME280;56688;50.234;19.292;2022-08-21T02:33:23;97940.05;;;20.61;85.09
69127;BME280;56688;50.234;19.292;2022-08-21T02:35:50;97931.25;;;20.62;85.07
69127;BME280;56688;50.234;19.292;2022-08-21T02:38:23;97927.59;;;20.64;84.89
69127;BME280;56688;50.234;19.292;2022-08-21T02:40:51;97927.48;;;20.64;84.91
69127;BME280;56688;50.234;19.292;2022-08-21T02:43:20;97924.98;;;20.66;84.89
69127;BME280;56688;50.234;19.292;2022-08-21T02:45:49;97923.63;;;20.66;84.99
69127;BME280;56688;50.234;19.292;2022-08-21T02:48:20;97922.65;;;20.68;84.89
69127;BME280;56688;50.234;19.292;2022-08-21T02:50:52;97928.02;;;20.69;84.87
69127;BME280;56688;50.234;19.292;2022-08-21T02:53:20;97932.98;;;20.71;84.80
69127;BME280;56688;50.234;19.292;2022-08-21T02:55:49;97934.89;;;20.72;84.70
69127;BME280;56688;50.234;19.292;2022-08-21T02:58:19;97935.86;;;20.74;84.66
69127;BME280;56688;50.234;19.292;2022-08-21T03:00:46;97935.37;;;20.74;84.69
69127;BME280;56688;50.234;19.292;2022-08-21T03:03:14;97943.35;;;20.75;84.60
69127;BME280;56688;50.234;19.292;2022-08-21T03:05:42;97949.89;;;20.78;84.54
69127;BME280;56688;50.234;19.292;2022-08-21T03:08:11;97948.15;;;20.80;84.66
69127;BME280;56688;50.234;19.292;2022-08-21T03:10:51;97944.08;;;20.82;84.57
69127;BME280;56688;50.234;19.292;2022-08-21T03:13:20;97937.83;;;20.83;84.50
69127;BME280;56688;50.234;19.292;2022-08-21T03:15:48;97937.02;;;20.83;84.35
69127;BME280;56688;50.234;19.292;2022-08-21T03:18:16;97941.91;;;20.83;84.24
69127;BME280;56688;50.234;19.292;2022-08-21T03:20:44;97941.53;;;20.82;84.25
69127;BME280;56688;50.234;19.292;2022-08-21T03:23:12;97945.50;;;20.81;84.40
69127;BME280;56688;50.234;19.292;2022-08-21T03:25:46;97947.39;;;20.80;84.31
69127;BME280;56688;50.234;19.292;2022-08-21T03:28:16;97951.46;;;20.81;84.39
69127;BME280;56688;50.234;19.292;2022-08-21T03:30:45;97956.30;;;20.82;84.33
69127;BME280;56688;50.234;19.292;2022-08-21T03:33:13;97958.63;;;20.82;84.19
69127;BME280;56688;50.234;19.292;2022-08-21T03:35:43;97966.29;;;20.83;84.23
69127;BME280;56688;50.234;19.292;2022-08-21T03:38:12;97973.17;;;20.83;84.44
69127;BME280;56688;50.234;19.292;2022-08-21T03:40:41;97977.47;;;20.83;84.36
69127;BME280;56688;50.234;19.292;2022-08-21T03:43:08;97976.71;;;20.80;84.21
69127;BME280;56688;50.234;19.292;2022-08-21T03:45:37;97975.52;;;20.78;84.38
69127;BME280;56688;50.234;19.292;2022-08-21T03:48:05;97981.46;;;20.77;84.45
69127;BME280;56688;50.234;19.292;2022-08-21T03:50:37;97983.85;;;20.77;84.59
69127;BME280;56688;50.234;19.292;2022-08-21T03:53:08;97981.52;;;20.75;84.61
69127;BME280;56688;50.234;19.292;2022-08-21T03:55:45;97985.43;;;20.75;84.78
69127;BME280;56688;50.234;19.292;2022-08-21T03:58:15;97989.29;;;20.74;84.75
69127;BME280;56688;50.234;19.292;2022-08-21T04:00:44;97987.60;;;20.73;84.86
69127;BME280;56688;50.234;19.292;2022-08-21T04:03:12;97982.39;;;20.74;84.95
69127;BME280;56688;50.234;19.292;2022-08-21T04:05:39;97982.94;;;20.77;84.96
69127;BME280;56688;50.234;19.292;2022-08-21T04:08:07;97979.38;;;20.81;85.03
69127;BME280;56688;50.234;19.292;2022-08-21T04:10:35;97984.48;;;20.85;85.00
69127;BME280;56688;50.234;19.292;2022-08-21T04:13:04;97981.95;;;20.90;84.88
69127;BME280;56688;50.234;19.292;2022-08-21T04:15:31;97982.30;;;20.95;84.78
69127;BME280;56688;50.234;19.292;2022-08-21T04:17:58;97983.92;;;20.98;84.83
69127;BME280;56688;50.234;19.292;2022-08-21T04:20:26;97979.79;;;21.00;84.81
69127;BME280;56688;50.234;19.292;2022-08-21T04:22:53;97978.46;;;21.02;84.57
69127;BME280;56688;50.234;19.292;2022-08-21T04:25:22;97979.75;;;21.05;84.69
69127;BME280;56688;50.234;19.292;2022-08-21T04:27:49;97981.67;;;21.09;84.61
69127;BME280;56688;50.234;19.292;2022-08-21T04:30:16;97980.59;;;21.13;84.66
69127;BME280;56688;50.234;19.292;2022-08-21T04:32:48;97982.48;;;21.16;84.26
69127;BME280;56688;50.234;19.292;2022-08-21T04:35:18;97983.53;;;21.18;84.23
69127;BME280;56688;50.234;19.292;2022-08-21T04:37:47;97984.73;;;21.23;84.24
69127;BME280;56688;50.234;19.292;2022-08-21T04:40:17;97989.73;;;21.25;84.28
69127;BME280;56688;50.234;19.292;2022-08-21T04:42:48;97990.68;;;21.28;84.27
69127;BME280;56688;50.234;19.292;2022-08-21T04:45:21;97993.63;;;21.31;83.98
69127;BME280;56688;50.234;19.292;2022-08-21T04:47:50;97985.66;;;21.33;83.79
69127;BME280;56688;50.234;19.292;2022-08-21T04:50:21;97981.35;;;21.37;83.89
69127;BME280;56688;50.234;19.292;2022-08-21T04:53:04;97984.29;;;21.44;83.68
69127;BME280;56688;50.234;19.292;2022-08-21T04:55:32;97982.95;;;21.49;83.51
69127;BME280;56688;50.234;19.292;2022-08-21T04:57:59;97985.33;;;21.54;83.71
69127;BME280;56688;50.234;19.292;2022-08-21T05:00:26;97986.09;;;21.60;83.71
69127;BME280;56688;50.234;19.292;2022-08-21T05:02:54;97990.94;;;21.65;83.38
69127;BME280;56688;50.234;19.292;2022-08-21T05:05:24;97988.36;;;21.73;83.01
69127;BME280;56688;50.234;19.292;2022-08-21T05:07:53;97988.75;;;21.79;82.66
69127;BME280;56688;50.234;19.292;2022-08-21T05:10:20;97987.92;;;21.85;82.54
69127;BME280;56688;50.234;19.292;2022-08-21T05:12:47;97992.48;;;21.92;82.02
69127;BME280;56688;50.234;19.292;2022-08-21T05:15:14;97992.04;;;21.98;81.55
69127;BME280;56688;50.234;19.292;2022-08-21T05:17:41;97995.10;;;22.05;81.45
69127;BME280;56688;50.234;19.292;2022-08-21T05:20:10;97999.39;;;22.12;81.13
69127;BME280;56688;50.234;19.292;2022-08-21T05:22:37;98005.48;;;22.19;80.64
69127;BME280;56688;50.234;19.292;2022-08-21T05:25:06;98010.52;;;22.25;80.36
69127;BME280;56688;50.234;19.292;2022-08-21T05:27:37;98011.87;;;22.30;80.02
69127;BME280;56688;50.234;19.292;2022-08-21T05:30:09;98012.15;;;22.32;79.60
69127;BME280;56688;50.234;19.292;2022-08-21T05:32:37;98011.36;;;22.37;79.89
69127;BME280;56688;50.234;19.292;2022-08-21T05:35:05;98012.83;;;22.41;79.52
69127;BME280;56688;50.234;19.292;2022-08-21T05:37:33;98015.73;;;22.45;79.65
69127;BME280;56688;50.234;19.292;2022-08-21T05:40:02;98015.15;;;22.47;79.27
69127;BME280;56688;50.234;19.292;2022-08-21T05:42:53;98012.41;;;22.50;79.16
69127;BME280;56688;50.234;19.292;2022-08-21T05:45:23;98012.41;;;22.51;79.45
69127;BME280;56688;50.234;19.292;2022-08-21T05:48:14;98011.75;;;22.54;79.51
69127;BME280;56688;50.234;19.292;2022-08-21T05:50:43;98006.58;;;22.56;79.60
69127;BME280;56688;50.234;19.292;2022-08-21T05:53:11;98009.17;;;22.58;79.47
69127;BME280;56688;50.234;19.292;2022-08-21T05:55:40;98007.64;;;22.64;79.36
69127;BME280;56688;50.234;19.292;2022-08-21T05:58:14;98009.61;;;22.72;79.26
69127;BME280;56688;50.234;19.292;2022-08-21T06:00:42;98010.88;;;22.84;79.06
69127;BME280;56688;50.234;19.292;2022-08-21T06:03:12;98005.82;;;22.97;78.49
69127;BME280;56688;50.234;19.292;2022-08-21T06:05:39;98000.85;;;23.09;77.74
69127;BME280;56688;50.234;19.292;2022-08-21T06:08:06;98005.76;;;23.18;77.28
69127;BME280;56688;50.234;19.292;2022-08-21T06:10:33;98009.98;;;23.21;76.97
69127;BME280;56688;50.234;19.292;2022-08-21T06:13:00;98009.48;;;23.24;76.44
69127;BME280;56688;50.234;19.292;2022-08-21T06:15:27;98004.88;;;23.36;76.84
69127;BME280;56688;50.234;19.292;2022-08-21T06:17:54;98006.02;;;23.50;76.88
69127;BME280;56688;50.234;19.292;2022-08-21T06:20:22;98002.75;;;23.68;76.45
69127;BME280;56688;50.234;19.292;2022-08-21T06:22:49;98001.56;;;23.86;75.43
69127;BME280;56688;50.234;19.292;2022-08-21T06:25:16;98003.43;;;24.03;74.36
69127;BME280;56688;50.234;19.292;2022-08-21T06:27:43;98005.27;;;24.20;73.59
69127;BME280;56688;50.234;19.292;2022-08-21T06:30:10;98006.27;;;24.29;73.02
69127;BME280;56688;50.234;19.292;2022-08-21T06:32:38;98009.40;;;24.27;72.63
69127;BME280;56688;50.234;19.292;2022-08-21T06:35:05;98008.04;;;24.23;71.10
69127;BME280;56688;50.234;19.292;2022-08-21T06:37:33;98009.11;;;24.18;70.95
69127;BME280;56688;50.234;19.292;2022-08-21T06:40:01;98005.52;;;24.07;71.75
69127;BME280;56688;50.234;19.292;2022-08-21T06:42:28;98011.73;;;23.96;72.66
69127;BME280;56688;50.234;19.292;2022-08-21T06:44:56;98018.85;;;23.81;72.77
69127;BME280;56688;50.234;19.292;2022-08-21T06:47:24;98027.73;;;23.67;73.37
69127;BME280;56688;50.234;19.292;2022-08-21T06:49:50;98026.70;;;23.57;74.26
69127;BME280;56688;50.234;19.292;2022-08-21T06:52:17;98028.42;;;23.52;74.84
69127;BME280;56688;50.234;19.292;2022-08-21T06:54:44;98027.97;;;23.48;74.97
69127;BME280;56688;50.234;19.292;2022-08-21T06:57:11;98029.02;;;23.39;75.35
69127;BME280;56688;50.234;19.292;2022-08-21T06:59:38;98034.08;;;23.37;74.93
69127;BME280;56688;50.234;19.292;2022-08-21T07:02:07;98033.16;;;23.37;75.41
69127;BME280;56688;50.234;19.292;2022-08-21T07:04:34;98031.45;;;23.41;75.49
69127;BME280;56688;50.234;19.292;2022-08-21T07:07:01;98027.42;;;23.41;75.29
69127;BME280;56688;50.234;19.292;2022-08-21T07:09:28;98032.50;;;23.39;75.91
69127;BME280;56688;50.234;19.292;2022-08-21T07:11:55;98039.20;;;23.38;75.34
69127;BME280;56688;50.234;19.292;2022-08-21T07:14:23;98042.02;;;23.35;74.73
69127;BME280;56688;50.234;19.292;2022-08-21T07:16:49;98044.50;;;23.30;75.11
69127;BME280;56688;50.234;19.292;2022-08-21T07:19:17;98045.80;;;23.20;75.18
69127;BME280;56688;50.234;19.292;2022-08-21T07:21:45;98044.66;;;23.08;75.71
69127;BME280;56688;50.234;19.292;2022-08-21T07:24:12;98045.27;;;23.00;76.47
69127;BME280;56688;50.234;19.292;2022-08-21T07:26:39;98044.63;;;22.93;77.02
69127;BME280;56688;50.234;19.292;2022-08-21T07:29:06;98046.39;;;22.90;77.26
69127;BME280;56688;50.234;19.292;2022-08-21T07:31:33;98045.41;;;22.88;77.91
69127;BME280;56688;50.234;19.292;2022-08-21T07:34:00;98048.20;;;22.88;78.29
69127;BME280;56688;50.234;19.292;2022-08-21T07:36:27;98048.39;;;22.93;78.24
69127;BME280;56688;50.234;19.292;2022-08-21T07:38:54;98053.18;;;22.96;78.18
69127;BME280;56688;50.234;19.292;2022-08-21T07:41:25;98058.55;;;22.98;77.18
69127;BME280;56688;50.234;19.292;2022-08-21T07:43:52;98057.48;;;22.92;73.82
69127;BME280;56688;50.234;19.292;2022-08-21T07:46:20;98060.67;;;22.82;72.31
69127;BME280;56688;50.234;19.292;2022-08-21T07:48:47;98061.63;;;22.70;72.05
69127;BME280;56688;50.234;19.292;2022-08-21T07:51:16;98062.04;;;22.61;72.36
69127;BME280;56688;50.234;19.292;2022-08-21T07:53:49;98059.01;;;22.54;72.13
69127;BME280;56688;50.234;19.292;2022-08-21T07:56:17;98052.17;;;22.44;72.01
69127;BME280;56688;50.234;19.292;2022-08-21T07:58:44;98050.02;;;22.37;70.98
69127;BME280;56688;50.234;19.292;2022-08-21T08:01:11;98051.88;;;22.28;71.44
69127;BME280;56688;50.234;19.292;2022-08-21T08:03:38;98054.89;;;22.25;71.68
69127;BME280;56688;50.234;19.292;2022-08-21T08:06:06;98053.63;;;22.22;71.76
69127;BME280;56688;50.234;19.292;2022-08-21T08:08:39;98051.91;;;22.18;71.60
69127;BME280;56688;50.234;19.292;2022-08-21T08:11:08;98052.33;;;22.13;71.38
69127;BME280;56688;50.234;19.292;2022-08-21T08:13:40;98053.87;;;22.11;71.20
69127;BME280;56688;50.234;19.292;2022-08-21T08:16:07;98050.96;;;22.14;71.53
69127;BME280;56688;50.234;19.292;2022-08-21T08:18:34;98051.20;;;22.19;71.72
69127;BME280;56688;50.234;19.292;2022-08-21T08:21:02;98048.56;;;22.30;72.16
69127;BME280;56688;50.234;19.292;2022-08-21T08:23:29;98050.82;;;22.45;72.10
69127;BME280;56688;50.234;19.292;2022-08-21T08:25:57;98050.89;;;22.60;71.60
69127;BME280;56688;50.234;19.292;2022-08-21T08:28:25;98055.24;;;22.75;71.43
69127;BME280;56688;50.234;19.292;2022-08-21T08:30:52;98053.56;;;22.93;71.03
69127;BME280;56688;50.234;19.292;2022-08-21T08:33:18;98059.80;;;23.13;70.35
69127;BME280;56688;50.234;19.292;2022-08-21T08:35:48;98049.38;;;23.33;69.19
69127;BME280;56688;50.234;19.292;2022-08-21T08:38:17;98044.98;;;23.57;69.18
69127;BME280;56688;50.234;19.292;2022-08-21T08:43:19;98039.95;;;24.26;67.67
69127;BME280;56688;50.234;19.292;2022-08-21T08:45:50;98036.37;;;24.66;66.61
69127;BME280;56688;50.234;19.292;2022-08-21T08:51:15;98030.83;;;25.48;64.08
69127;BME280;56688;50.234;19.292;2022-08-21T08:56:21;98025.25;;;26.15;60.07
69127;BME280;56688;50.234;19.292;2022-08-21T08:58:50;98027.75;;;26.44;59.18
69127;BME280;56688;50.234;19.292;2022-08-21T09:01:19;98023.87;;;26.64;58.57
69127;BME280;56688;50.234;19.292;2022-08-21T09:03:47;98021.41;;;26.77;58.32
69127;BME280;56688;50.234;19.292;2022-08-21T09:06:48;98023.88;;;26.88;58.50
69127;BME280;56688;50.234;19.292;2022-08-21T09:11:56;98025.08;;;27.10;57.91
69127;BME280;56688;50.234;19.292;2022-08-21T09:25:19;98023.40;;;27.43;56.57
69127;BME280;56688;50.234;19.292;2022-08-21T09:27:50;98028.84;;;27.45;56.27
69127;BME280;56688;50.234;19.292;2022-08-21T09:30:19;98023.66;;;27.41;56.75
69127;BME280;56688;50.234;19.292;2022-08-21T09:32:50;98026.29;;;27.35;56.88
69127;BME280;56688;50.234;19.292;2022-08-21T09:35:20;98029.17;;;27.24;56.42
69127;BME280;56688;50.234;19.292;2022-08-21T09:43:04;98026.00;;;26.59;56.76
69127;BME280;56688;50.234;19.292;2022-08-21T09:45:32;98022.16;;;26.41;57.89
69127;BME280;56688;50.234;19.292;2022-08-21T09:48:14;98014.67;;;26.22;57.79
69127;BME280;56688;50.234;19.292;2022-08-21T09:50:42;98013.42;;;26.03;58.68
69127;BME280;56688;50.234;19.292;2022-08-21T09:53:20;98016.98;;;25.88;58.19
69127;BME280;56688;50.234;19.292;2022-08-21T09:58:35;98011.37;;;25.64;59.71
69127;BME280;56688;50.234;19.292;2022-08-21T10:01:05;98020.42;;;25.55;58.90
69127;BME280;56688;50.234;19.292;2022-08-21T10:03:33;98018.95;;;25.38;58.87
69127;BME280;56688;50.234;19.292;2022-08-21T10:06:03;98021.35;;;25.22;57.95
69127;BME280;56688;50.234;19.292;2022-08-21T10:08:37;98022.38;;;25.08;58.88
69127;BME280;56688;50.234;19.292;2022-08-21T10:11:08;98021.83;;;24.93;58.32
69127;BME280;56688;50.234;19.292;2022-08-21T10:13:47;98024.95;;;24.75;58.18
69127;BME280;56688;50.234;19.292;2022-08-21T10:16:30;98024.52;;;24.56;59.68
69127;BME280;56688;50.234;19.292;2022-08-21T10:24:25;98030.75;;;24.17;60.00
69127;BME280;56688;50.234;19.292;2022-08-21T10:35:13;98028.84;;;23.81;62.61
69127;BME280;56688;50.234;19.292;2022-08-21T10:46:47;98028.92;;;23.83;64.25
69127;BME280;56688;50.234;19.292;2022-08-21T10:52:01;98031.14;;;23.87;63.32
69127;BME280;56688;50.234;19.292;2022-08-21T10:54:40;98034.89;;;23.95;63.27
69127;BME280;56688;50.234;19.292;2022-08-21T10:57:30;98031.67;;;24.04;63.18
69127;BME280;56688;50.234;19.292;2022-08-21T11:00:04;98031.92;;;24.14;63.29
69127;BME280;56688;50.234;19.292;2022-08-21T11:02:38;98032.23;;;24.22;62.30
69127;BME280;56688;50.234;19.292;2022-08-21T11:07:55;98029.84;;;24.38;62.43
69127;BME280;56688;50.234;19.292;2022-08-21T11:10:32;98029.40;;;24.49;61.97
69127;BME280;56688;50.234;19.292;2022-08-21T11:13:15;98031.19;;;24.66;62.16
69127;BME280;56688;50.234;19.292;2022-08-21T11:18:26;98033.52;;;25.23;60.77
69127;BME280;56688;50.234;19.292;2022-08-21T11:23:37;98027.38;;;25.73;58.12
69127;BME280;56688;50.234;19.292;2022-08-21T11:26:09;98023.83;;;25.84;57.03
69127;BME280;56688;50.234;19.292;2022-08-21T11:28:47;98022.90;;;25.90;57.71
69127;BME280;56688;50.234;19.292;2022-08-21T11:31:40;98025.23;;;26.10;58.43
69127;BME280;56688;50.234;19.292;2022-08-21T11:37:01;98020.20;;;26.70;56.36
69127;BME280;56688;50.234;19.292;2022-08-21T11:39:38;98022.11;;;27.08;55.76
69127;BME280;56688;50.234;19.292;2022-08-21T11:50:45;98001.95;;;29.07;50.00
69127;BME280;56688;50.234;19.292;2022-08-21T11:53:20;98003.73;;;29.47;48.70
69127;BME280;56688;50.234;19.292;2022-08-21T11:55:55;98002.77;;;29.72;48.18
69127;BME280;56688;50.234;19.292;2022-08-21T11:58:30;98000.46;;;29.72;47.62
69127;BME280;56688;50.234;19.292;2022-08-21T12:01:04;98001.34;;;29.55;47.93
69127;BME280;56688;50.234;19.292;2022-08-21T12:03:36;98004.30;;;29.44;48.16
69127;BME280;56688;50.234;19.292;2022-08-21T12:06:10;98001.14;;;29.47;48.43
69127;BME280;56688;50.234;19.292;2022-08-21T12:08:40;98003.88;;;29.77;48.34
69127;BME280;56688;50.234;19.292;2022-08-21T12:11:22;98004.98;;;30.09;47.45
69127;BME280;56688;50.234;19.292;2022-08-21T12:14:15;97997.27;;;30.36;46.64
69127;BME280;56688;50.234;19.292;2022-08-21T12:16:45;97992.71;;;30.35;46.79
69127;BME280;56688;50.234;19.292;2022-08-21T12:24:36;97996.52;;;30.37;46.45
69127;BME280;56688;50.234;19.292;2022-08-21T12:27:21;97996.92;;;30.15;46.61
69127;BME280;56688;50.234;19.292;2022-08-21T12:29:56;97994.58;;;29.85;48.94
69127;BME280;56688;50.234;19.292;2022-08-21T12:35:11;97993.13;;;29.30;48.67
69127;BME280;56688;50.234;19.292;2022-08-21T12:37:59;97993.92;;;28.89;49.68
69127;BME280;56688;50.234;19.292;2022-08-21T12:40:32;97994.33;;;28.54;50.60
69127;BME280;56688;50.234;19.292;2022-08-21T12:43:04;97990.02;;;28.29;51.31
69127;BME280;56688;50.234;19.292;2022-08-21T12:45:34;97982.80;;;27.99;52.22
69127;BME280;56688;50.234;19.292;2022-08-21T12:48:29;97993.54;;;27.77;52.70
69127;BME280;56688;50.234;19.292;2022-08-21T12:53:50;97997.58;;;26.89;54.36
69127;BME280;56688;50.234;19.292;2022-08-21T12:56:21;97996.65;;;26.59;55.64
69127;BME280;56688;50.234;19.292;2022-08-21T12:58:51;97997.91;;;26.35;56.39
69127;BME280;56688;50.234;19.292;2022-08-21T13:01:24;97994.79;;;26.08;56.86
69127;BME280;56688;50.234;19.292;2022-08-21T13:03:55;97994.77;;;25.84;57.24
69127;BME280;56688;50.234;19.292;2022-08-21T13:06:36;98001.38;;;25.59;58.61
69127;BME280;56688;50.234;19.292;2022-08-21T13:09:07;97998.98;;;25.44;58.80
69127;BME280;56688;50.234;19.292;2022-08-21T13:11:36;97999.11;;;25.40;59.28
69127;BME280;56688;50.234;19.292;2022-08-21T13:14:15;98000.67;;;25.52;59.86
69127;BME280;56688;50.234;19.292;2022-08-21T13:16:45;97998.77;;;25.62;59.53
69127;BME280;56688;50.234;19.292;2022-08-21T13:19:17;97998.69;;;25.60;59.06
69127;BME280;56688;50.234;19.292;2022-08-21T13:21:50;97998.91;;;25.48;59.46
69127;BME280;56688;50.234;19.292;2022-08-21T13:24:23;98004.94;;;25.31;59.55
69127;BME280;56688;50.234;19.292;2022-08-21T13:27:20;98014.65;;;25.09;60.50
69127;BME280;56688;50.234;19.292;2022-08-21T13:29:47;98012.77;;;24.88;61.20
69127;BME280;56688;50.234;19.292;2022-08-21T13:32:30;98009.67;;;24.74;61.77
69127;BME280;56688;50.234;19.292;2022-08-21T13:34:59;98014.01;;;24.67;62.49
69127;BME280;56688;50.234;19.292;2022-08-21T13:37:35;98013.11;;;24.69;62.55
69127;BME280;56688;50.234;19.292;2022-08-21T13:40:02;98008.19;;;24.79;62.94
69127;BME280;56688;50.234;19.292;2022-08-21T13:42:33;98015.09;;;24.95;62.17
69127;BME280;56688;50.234;19.292;2022-08-21T13:45:00;98019.31;;;25.03;61.89
69127;BME280;56688;50.234;19.292;2022-08-21T13:47:27;98021.39;;;25.03;61.43
69127;BME280;56688;50.234;19.292;2022-08-21T13:49:54;98017.84;;;24.89;61.67
69127;BME280;56688;50.234;19.292;2022-08-21T13:52:26;98019.98;;;24.79;62.61
69127;BME280;56688;50.234;19.292;2022-08-21T13:54:55;98021.77;;;24.68;62.38
69127;BME280;56688;50.234;19.292;2022-08-21T13:57:27;98025.23;;;24.62;62.81
69127;BME280;56688;50.234;19.292;2022-08-21T14:02:42;98028.04;;;24.68;62.93
69127;BME280;56688;50.234;19.292;2022-08-21T14:05:28;98033.85;;;24.66;62.67
69127;BME280;56688;50.234;19.292;2022-08-21T14:08:05;98037.44;;;24.53;62.31
69127;BME280;56688;50.234;19.292;2022-08-21T14:10:37;98039.73;;;24.31;62.87
69127;BME280;56688;50.234;19.292;2022-08-21T14:13:14;98041.66;;;24.10;63.43
69127;BME280;56688;50.234;19.292;2022-08-21T14:15:59;98046.16;;;23.84;64.13
69127;BME280;56688;50.234;19.292;2022-08-21T14:18:26;98048.39;;;23.61;64.98
69127;BME280;56688;50.234;19.292;2022-08-21T14:21:09;98047.66;;;23.37;65.59
69127;BME280;56688;50.234;19.292;2022-08-21T14:23:36;98057.11;;;23.15;65.57
69127;BME280;56688;50.234;19.292;2022-08-21T14:26:05;98054.54;;;22.93;66.32
69127;BME280;56688;50.234;19.292;2022-08-21T14:28:39;98056.80;;;22.68;66.81
69127;BME280;56688;50.234;19.292;2022-08-21T14:31:14;98058.55;;;22.39;67.77
69127;BME280;56688;50.234;19.292;2022-08-21T14:33:42;98062.79;;;22.16;68.62
69127;BME280;56688;50.234;19.292;2022-08-21T14:36:10;98063.41;;;22.00;69.21
69127;BME280;56688;50.234;19.292;2022-08-21T14:38:39;98072.34;;;21.83;69.67